sensor_id;sensor_type;location;lat;lon;timestamp;temperature;humidity
31443;SHT31;18065;55.876;9.830;2024-02-21T00:00:12;23.17;47.63
31443;SHT31;18065;55.876;9.830;2024-02-21T00:02:41;23.19;47.63
31443;SHT31;18065;55.876;9.830;2024-02-21T00:05:09;23.19;47.55
31443;SHT31;18065;55.876;9.830;2024-02-21T00:07:38;23.16;47.56
31443;SHT31;18065;55.876;9.830;2024-02-21T00:10:10;23.19;47.69
31443;SHT31;18065;55.876;9.830;2024-02-21T00:12:39;23.17;47.54
31443;SHT31;18065;55.876;9.830;2024-02-21T00:15:08;23.19;47.60
31443;SHT31;18065;55.876;9.830;2024-02-21T00:17:37;23.19;47.58
31443;SHT31;18065;55.876;9.830;2024-02-21T00:20:07;23.17;47.56
31443;SHT31;18065;55.876;9.830;2024-02-21T00:22:36;23.17;47.79
31443;SHT31;18065;55.876;9.830;2024-02-21T00:25:05;23.19;47.60
31443;SHT31;18065;55.876;9.830;2024-02-21T00:27:37;23.14;47.51
31443;SHT31;18065;55.876;9.830;2024-02-21T00:30:07;23.17;47.59
31443;SHT31;18065;55.876;9.830;2024-02-21T00:32:36;23.14;47.73
31443;SHT31;18065;55.876;9.830;2024-02-21T00:35:05;23.19;47.79
31443;SHT31;18065;55.876;9.830;2024-02-21T00:37:34;23.17;47.61
31443;SHT31;18065;55.876;9.830;2024-02-21T00:40:04;23.19;47.72
31443;SHT31;18065;55.876;9.830;2024-02-21T00:42:33;23.16;47.56
31443;SHT31;18065;55.876;9.830;2024-02-21T00:45:06;23.17;47.52
31443;SHT31;18065;55.876;9.830;2024-02-21T00:47:35;23.19;47.54
31443;SHT31;18065;55.876;9.830;2024-02-21T00:50:05;23.17;47.54
31443;SHT31;18065;55.876;9.830;2024-02-21T00:52:35;23.17;47.73
31443;SHT31;18065;55.876;9.830;2024-02-21T00:55:05;23.17;47.54
31443;SHT31;18065;55.876;9.830;2024-02-21T00:57:34;23.20;47.63
31443;SHT31;18065;55.876;9.830;2024-02-21T01:00:07;23.17;47.52
31443;SHT31;18065;55.876;9.830;2024-02-21T01:02:36;23.17;47.56
31443;SHT31;18065;55.876;9.830;2024-02-21T01:05:05;23.20;47.50
31443;SHT31;18065;55.876;9.830;2024-02-21T01:07:34;23.19;47.62
31443;SHT31;18065;55.876;9.830;2024-02-21T01:10:04;23.17;47.56
31443;SHT31;18065;55.876;9.830;2024-02-21T01:12:33;23.16;47.75
31443;SHT31;18065;55.876;9.830;2024-02-21T01:15:03;23.19;47.47
31443;SHT31;18065;55.876;9.830;2024-02-21T01:17:34;23.19;47.49
31443;SHT31;18065;55.876;9.830;2024-02-21T01:20:07;23.17;47.61
31443;SHT31;18065;55.876;9.830;2024-02-21T01:22:36;23.17;47.52
31443;SHT31;18065;55.876;9.830;2024-02-21T01:25:06;23.19;47.50
31443;SHT31;18065;55.876;9.830;2024-02-21T01:27:35;23.17;47.47
31443;SHT31;18065;55.876;9.830;2024-02-21T01:30:05;23.20;47.41
31443;SHT31;18065;55.876;9.830;2024-02-21T01:32:37;23.19;47.40
31443;SHT31;18065;55.876;9.830;2024-02-21T01:35:06;23.17;47.49
31443;SHT31;18065;55.876;9.830;2024-02-21T01:37:35;23.17;47.61
31443;SHT31;18065;55.876;9.830;2024-02-21T01:40:05;23.22;47.52
31443;SHT31;18065;55.876;9.830;2024-02-21T01:42:38;23.14;47.41
31443;SHT31;18065;55.876;9.830;2024-02-21T01:45:07;23.16;47.39
31443;SHT31;18065;55.876;9.830;2024-02-21T01:47:39;23.16;47.48
31443;SHT31;18065;55.876;9.830;2024-02-21T01:50:09;23.19;47.46
31443;SHT31;18065;55.876;9.830;2024-02-21T01:52:38;23.19;47.43
31443;SHT31;18065;55.876;9.830;2024-02-21T01:55:08;23.19;47.44
31443;SHT31;18065;55.876;9.830;2024-02-21T01:57:39;23.16;47.41
31443;SHT31;18065;55.876;9.830;2024-02-21T02:00:10;23.17;47.40
31443;SHT31;18065;55.876;9.830;2024-02-21T02:02:42;23.22;47.37
31443;SHT31;18065;55.876;9.830;2024-02-21T02:05:11;23.19;47.37
31443;SHT31;18065;55.876;9.830;2024-02-21T02:07:40;23.19;47.36
31443;SHT31;18065;55.876;9.830;2024-02-21T02:10:09;23.19;47.31
31443;SHT31;18065;55.876;9.830;2024-02-21T02:12:38;23.16;47.38
31443;SHT31;18065;55.876;9.830;2024-02-21T02:15:08;23.20;47.31
31443;SHT31;18065;55.876;9.830;2024-02-21T02:17:37;23.17;47.27
31443;SHT31;18065;55.876;9.830;2024-02-21T02:20:09;23.17;47.27
31443;SHT31;18065;55.876;9.830;2024-02-21T02:22:39;23.16;47.32
31443;SHT31;18065;55.876;9.830;2024-02-21T02:25:12;23.20;47.29
31443;SHT31;18065;55.876;9.830;2024-02-21T02:27:44;23.17;47.30
31443;SHT31;18065;55.876;9.830;2024-02-21T02:30:13;23.17;47.32
31443;SHT31;18065;55.876;9.830;2024-02-21T02:32:44;23.16;47.31
31443;SHT31;18065;55.876;9.830;2024-02-21T02:35:13;23.17;47.31
31443;SHT31;18065;55.876;9.830;2024-02-21T02:37:48;23.14;47.26
31443;SHT31;18065;55.876;9.830;2024-02-21T02:40:19;23.17;47.37
31443;SHT31;18065;55.876;9.830;2024-02-21T02:42:49;23.16;47.37
31443;SHT31;18065;55.876;9.830;2024-02-21T02:45:21;23.16;47.39
31443;SHT31;18065;55.876;9.830;2024-02-21T02:47:52;23.14;47.47
31443;SHT31;18065;55.876;9.830;2024-02-21T02:50:22;23.17;47.35
31443;SHT31;18065;55.876;9.830;2024-02-21T02:52:51;23.14;47.34
31443;SHT31;18065;55.876;9.830;2024-02-21T02:55:23;23.13;47.33
31443;SHT31;18065;55.876;9.830;2024-02-21T02:57:53;23.14;47.36
31443;SHT31;18065;55.876;9.830;2024-02-21T03:00:22;23.16;47.39
31443;SHT31;18065;55.876;9.830;2024-02-21T03:02:51;23.19;47.32
31443;SHT31;18065;55.876;9.830;2024-02-21T03:05:21;23.16;47.41
31443;SHT31;18065;55.876;9.830;2024-02-21T03:07:50;23.13;47.46
31443;SHT31;18065;55.876;9.830;2024-02-21T03:10:19;23.16;47.51
31443;SHT31;18065;55.876;9.830;2024-02-21T03:12:50;23.14;47.35
31443;SHT31;18065;55.876;9.830;2024-02-21T03:15:21;23.17;47.33
31443;SHT31;18065;55.876;9.830;2024-02-21T03:17:50;23.16;47.43
31443;SHT31;18065;55.876;9.830;2024-02-21T03:20:19;23.13;47.47
31443;SHT31;18065;55.876;9.830;2024-02-21T03:22:48;23.16;47.44
31443;SHT31;18065;55.876;9.830;2024-02-21T03:25:16;23.14;47.39
31443;SHT31;18065;55.876;9.830;2024-02-21T03:27:45;23.13;47.44
31443;SHT31;18065;55.876;9.830;2024-02-21T03:30:17;23.17;47.46
31443;SHT31;18065;55.876;9.830;2024-02-21T03:32:46;23.16;47.39
31443;SHT31;18065;55.876;9.830;2024-02-21T03:35:15;23.16;47.43
31443;SHT31;18065;55.876;9.830;2024-02-21T03:37:45;23.14;47.46
31443;SHT31;18065;55.876;9.830;2024-02-21T03:40:14;23.13;47.40
31443;SHT31;18065;55.876;9.830;2024-02-21T03:42:42;23.14;47.39
31443;SHT31;18065;55.876;9.830;2024-02-21T03:45:11;23.17;47.47
31443;SHT31;18065;55.876;9.830;2024-02-21T03:47:43;23.14;47.35
31443;SHT31;18065;55.876;9.830;2024-02-21T03:50:12;23.14;47.47
31443;SHT31;18065;55.876;9.830;2024-02-21T03:52:41;23.17;47.55
31443;SHT31;18065;55.876;9.830;2024-02-21T03:55:10;23.16;47.46
31443;SHT31;18065;55.876;9.830;2024-02-21T03:57:38;23.14;47.44
31443;SHT31;18065;55.876;9.830;2024-02-21T04:00:08;23.16;47.47
31443;SHT31;18065;55.876;9.830;2024-02-21T04:02:42;23.17;47.53
31443;SHT31;18065;55.876;9.830;2024-02-21T04:05:10;23.16;47.44
31443;SHT31;18065;55.876;9.830;2024-02-21T04:07:39;23.14;47.51
31443;SHT31;18065;55.876;9.830;2024-02-21T04:10:08;23.13;47.50
31443;SHT31;18065;55.876;9.830;2024-02-21T04:12:37;23.17;47.44
31443;SHT31;18065;55.876;9.830;2024-02-21T04:15:07;23.14;47.62
31443;SHT31;18065;55.876;9.830;2024-02-21T04:17:36;23.16;47.54
31443;SHT31;18065;55.876;9.830;2024-02-21T04:20:14;23.14;47.45
31443;SHT31;18065;55.876;9.830;2024-02-21T04:22:43;23.13;47.55
31443;SHT31;18065;55.876;9.830;2024-02-21T04:25:13;23.12;47.50
31443;SHT31;18065;55.876;9.830;2024-02-21T04:27:42;23.10;47.48
31443;SHT31;18065;55.876;9.830;2024-02-21T04:30:11;23.14;47.49
31443;SHT31;18065;55.876;9.830;2024-02-21T04:32:41;23.13;47.54
31443;SHT31;18065;55.876;9.830;2024-02-21T04:35:13;23.13;47.55
31443;SHT31;18065;55.876;9.830;2024-02-21T04:37:42;23.16;47.58
31443;SHT31;18065;55.876;9.830;2024-02-21T04:40:11;23.13;47.46
31443;SHT31;18065;55.876;9.830;2024-02-21T04:42:42;23.13;47.51
31443;SHT31;18065;55.876;9.830;2024-02-21T04:45:11;23.12;47.65
31443;SHT31;18065;55.876;9.830;2024-02-21T04:47:40;23.13;47.58
31443;SHT31;18065;55.876;9.830;2024-02-21T04:50:12;23.14;47.53
31443;SHT31;18065;55.876;9.830;2024-02-21T04:52:41;23.13;47.59
31443;SHT31;18065;55.876;9.830;2024-02-21T04:55:09;23.13;47.53
31443;SHT31;18065;55.876;9.830;2024-02-21T04:57:38;23.13;47.58
31443;SHT31;18065;55.876;9.830;2024-02-21T05:00:08;23.13;47.58
31443;SHT31;18065;55.876;9.830;2024-02-21T05:02:37;23.12;47.60
31443;SHT31;18065;55.876;9.830;2024-02-21T05:05:06;23.13;47.59
31443;SHT31;18065;55.876;9.830;2024-02-21T05:07:38;23.12;47.61
31443;SHT31;18065;55.876;9.830;2024-02-21T05:10:08;23.12;47.63
31443;SHT31;18065;55.876;9.830;2024-02-21T05:12:37;23.09;47.56
31443;SHT31;18065;55.876;9.830;2024-02-21T05:15:07;23.12;47.54
31443;SHT31;18065;55.876;9.830;2024-02-21T05:17:36;23.13;47.67
31443;SHT31;18065;55.876;9.830;2024-02-21T05:20:06;23.12;47.62
31443;SHT31;18065;55.876;9.830;2024-02-21T05:22:37;23.12;47.59
31443;SHT31;18065;55.876;9.830;2024-02-21T05:25:07;23.09;47.59
31443;SHT31;18065;55.876;9.830;2024-02-21T05:27:36;23.10;47.59
31443;SHT31;18065;55.876;9.830;2024-02-21T05:30:06;23.12;47.67
31443;SHT31;18065;55.876;9.830;2024-02-21T05:32:35;23.16;47.51
31443;SHT31;18065;55.876;9.830;2024-02-21T05:35:04;23.16;47.54
31443;SHT31;18065;55.876;9.830;2024-02-21T05:37:33;23.13;47.53
31443;SHT31;18065;55.876;9.830;2024-02-21T05:40:06;23.17;47.47
31443;SHT31;18065;55.876;9.830;2024-02-21T05:42:38;23.14;47.63
31443;SHT31;18065;55.876;9.830;2024-02-21T05:45:07;23.14;47.60
31443;SHT31;18065;55.876;9.830;2024-02-21T05:47:36;23.14;47.51
31443;SHT31;18065;55.876;9.830;2024-02-21T05:50:06;23.12;47.63
31443;SHT31;18065;55.876;9.830;2024-02-21T05:52:35;23.12;48.27
31443;SHT31;18065;55.876;9.830;2024-02-21T05:55:07;23.10;48.60
31443;SHT31;18065;55.876;9.830;2024-02-21T05:57:36;23.09;48.57
31443;SHT31;18065;55.876;9.830;2024-02-21T06:00:06;23.10;48.32
31443;SHT31;18065;55.876;9.830;2024-02-21T06:02:35;23.09;48.28
31443;SHT31;18065;55.876;9.830;2024-02-21T06:05:05;23.09;48.24
31443;SHT31;18065;55.876;9.830;2024-02-21T06:07:34;23.09;48.20
31443;SHT31;18065;55.876;9.830;2024-02-21T06:10:07;23.10;48.12
31443;SHT31;18065;55.876;9.830;2024-02-21T06:12:36;23.09;48.23
31443;SHT31;18065;55.876;9.830;2024-02-21T06:15:06;23.09;48.19
31443;SHT31;18065;55.876;9.830;2024-02-21T06:17:35;23.07;48.22
31443;SHT31;18065;55.876;9.830;2024-02-21T06:20:05;23.07;48.28
31443;SHT31;18065;55.876;9.830;2024-02-21T06:22:34;23.06;48.16
31443;SHT31;18065;55.876;9.830;2024-02-21T06:25:06;23.07;48.14
31443;SHT31;18065;55.876;9.830;2024-02-21T06:27:35;23.04;48.18
31443;SHT31;18065;55.876;9.830;2024-02-21T06:30:05;23.07;48.09
31443;SHT31;18065;55.876;9.830;2024-02-21T06:32:35;23.06;48.14
31443;SHT31;18065;55.876;9.830;2024-02-21T06:35:04;23.06;48.12
31443;SHT31;18065;55.876;9.830;2024-02-21T06:37:33;23.04;48.12
31443;SHT31;18065;55.876;9.830;2024-02-21T06:40:07;23.02;48.12
31443;SHT31;18065;55.876;9.830;2024-02-21T06:42:36;23.02;48.27
31443;SHT31;18065;55.876;9.830;2024-02-21T06:45:06;23.02;48.29
31443;SHT31;18065;55.876;9.830;2024-02-21T06:47:35;22.97;48.21
31443;SHT31;18065;55.876;9.830;2024-02-21T06:50:04;22.99;48.21
31443;SHT31;18065;55.876;9.830;2024-02-21T06:52:34;22.99;48.33
31443;SHT31;18065;55.876;9.830;2024-02-21T06:55:06;22.95;48.32
31443;SHT31;18065;55.876;9.830;2024-02-21T06:57:35;22.97;48.31
31443;SHT31;18065;55.876;9.830;2024-02-21T07:00:05;22.97;48.34
31443;SHT31;18065;55.876;9.830;2024-02-21T07:02:35;22.95;48.29
31443;SHT31;18065;55.876;9.830;2024-02-21T07:05:05;22.95;48.32
31443;SHT31;18065;55.876;9.830;2024-02-21T07:07:34;22.93;48.36
31443;SHT31;18065;55.876;9.830;2024-02-21T07:10:06;22.93;48.30
31443;SHT31;18065;55.876;9.830;2024-02-21T07:12:36;22.93;48.47
31443;SHT31;18065;55.876;9.830;2024-02-21T07:15:07;22.92;48.34
31443;SHT31;18065;55.876;9.830;2024-02-21T07:17:36;22.90;48.32
31443;SHT31;18065;55.876;9.830;2024-02-21T07:20:07;22.93;48.23
31443;SHT31;18065;55.876;9.830;2024-02-21T07:22:36;22.92;48.37
31443;SHT31;18065;55.876;9.830;2024-02-21T07:25:08;22.92;48.21
31443;SHT31;18065;55.876;9.830;2024-02-21T07:27:37;22.90;48.35
31443;SHT31;18065;55.876;9.830;2024-02-21T07:30:08;22.93;48.33
31443;SHT31;18065;55.876;9.830;2024-02-21T07:32:37;22.89;48.30
31443;SHT31;18065;55.876;9.830;2024-02-21T07:35:06;22.89;48.24
31443;SHT31;18065;55.876;9.830;2024-02-21T07:37:37;22.92;48.29
31443;SHT31;18065;55.876;9.830;2024-02-21T07:40:12;22.89;48.21
31443;SHT31;18065;55.876;9.830;2024-02-21T07:42:41;22.92;48.19
31443;SHT31;18065;55.876;9.830;2024-02-21T07:45:10;22.90;48.21
31443;SHT31;18065;55.876;9.830;2024-02-21T07:47:39;22.87;48.30
31443;SHT31;18065;55.876;9.830;2024-02-21T07:50:08;22.86;48.28
31443;SHT31;18065;55.876;9.830;2024-02-21T07:52:37;22.87;48.33
31443;SHT31;18065;55.876;9.830;2024-02-21T07:55:09;22.86;48.29
31443;SHT31;18065;55.876;9.830;2024-02-21T07:57:39;22.89;48.23
31443;SHT31;18065;55.876;9.830;2024-02-21T08:00:08;22.92;48.19
31443;SHT31;18065;55.876;9.830;2024-02-21T08:02:45;22.90;48.15
31443;SHT31;18065;55.876;9.830;2024-02-21T08:05:14;22.90;48.15
31443;SHT31;18065;55.876;9.830;2024-02-21T08:07:43;22.89;48.17
31443;SHT31;18065;55.876;9.830;2024-02-21T08:10:14;22.90;48.14
31443;SHT31;18065;55.876;9.830;2024-02-21T08:12:43;22.90;48.07
31443;SHT31;18065;55.876;9.830;2024-02-21T08:15:12;22.92;48.12
31443;SHT31;18065;55.876;9.830;2024-02-21T08:17:41;22.92;48.08
31443;SHT31;18065;55.876;9.830;2024-02-21T08:20:10;22.90;48.07
31443;SHT31;18065;55.876;9.830;2024-02-21T08:22:39;22.92;47.99
31443;SHT31;18065;55.876;9.830;2024-02-21T08:25:08;22.90;48.01
31443;SHT31;18065;55.876;9.830;2024-02-21T08:27:40;22.93;47.89
31443;SHT31;18065;55.876;9.830;2024-02-21T08:30:11;22.89;47.97
31443;SHT31;18065;55.876;9.830;2024-02-21T08:32:40;22.93;47.94
31443;SHT31;18065;55.876;9.830;2024-02-21T08:35:09;22.97;47.90
31443;SHT31;18065;55.876;9.830;2024-02-21T08:37:38;22.93;47.86
31443;SHT31;18065;55.876;9.830;2024-02-21T08:40:10;22.95;47.88
31443;SHT31;18065;55.876;9.830;2024-02-21T08:42:41;22.90;47.90
31443;SHT31;18065;55.876;9.830;2024-02-21T08:45:10;22.92;47.85
31443;SHT31;18065;55.876;9.830;2024-02-21T08:47:39;22.92;47.87
31443;SHT31;18065;55.876;9.830;2024-02-21T08:50:09;22.95;47.82
31443;SHT31;18065;55.876;9.830;2024-02-21T08:52:38;22.93;47.86
31443;SHT31;18065;55.876;9.830;2024-02-21T08:55:08;22.92;47.91
31443;SHT31;18065;55.876;9.830;2024-02-21T08:57:37;22.95;47.87
31443;SHT31;18065;55.876;9.830;2024-02-21T09:00:10;22.95;47.90
31443;SHT31;18065;55.876;9.830;2024-02-21T09:02:40;22.97;47.84
31443;SHT31;18065;55.876;9.830;2024-02-21T09:05:09;22.99;47.81
31443;SHT31;18065;55.876;9.830;2024-02-21T09:07:38;23.02;47.74
31443;SHT31;18065;55.876;9.830;2024-02-21T09:10:08;23.00;47.69
31443;SHT31;18065;55.876;9.830;2024-02-21T09:12:37;23.03;47.66
31443;SHT31;18065;55.876;9.830;2024-02-21T09:15:09;23.00;47.62
31443;SHT31;18065;55.876;9.830;2024-02-21T09:17:39;23.03;47.60
31443;SHT31;18065;55.876;9.830;2024-02-21T09:20:09;23.03;47.55
31443;SHT31;18065;55.876;9.830;2024-02-21T09:22:39;23.06;47.53
31443;SHT31;18065;55.876;9.830;2024-02-21T09:25:08;23.06;47.50
31443;SHT31;18065;55.876;9.830;2024-02-21T09:27:38;23.06;47.48
31443;SHT31;18065;55.876;9.830;2024-02-21T09:30:10;23.06;47.44
31443;SHT31;18065;55.876;9.830;2024-02-21T09:32:40;23.04;47.48
31443;SHT31;18065;55.876;9.830;2024-02-21T09:35:09;23.04;47.46
31443;SHT31;18065;55.876;9.830;2024-02-21T09:37:38;23.06;47.44
31443;SHT31;18065;55.876;9.830;2024-02-21T09:40:08;23.06;47.46
31443;SHT31;18065;55.876;9.830;2024-02-21T09:42:38;23.02;47.46
31443;SHT31;18065;55.876;9.830;2024-02-21T09:45:18;23.03;47.48
31443;SHT31;18065;55.876;9.830;2024-02-21T09:48:00;23.04;47.42
31443;SHT31;18065;55.876;9.830;2024-02-21T09:50:30;23.06;47.46
31443;SHT31;18065;55.876;9.830;2024-02-21T09:53:01;23.06;47.37
31443;SHT31;18065;55.876;9.830;2024-02-21T09:55:33;23.06;47.35
31443;SHT31;18065;55.876;9.830;2024-02-21T09:58:06;23.06;47.35
31443;SHT31;18065;55.876;9.830;2024-02-21T10:00:38;23.07;47.33
31443;SHT31;18065;55.876;9.830;2024-02-21T10:03:07;23.06;47.35
31443;SHT31;18065;55.876;9.830;2024-02-21T10:05:38;23.07;47.28
31443;SHT31;18065;55.876;9.830;2024-02-21T10:08:14;23.12;47.25
31443;SHT31;18065;55.876;9.830;2024-02-21T10:10:43;23.17;47.18
31443;SHT31;18065;55.876;9.830;2024-02-21T10:13:10;23.27;46.98
31443;SHT31;18065;55.876;9.830;2024-02-21T10:15:42;23.33;46.77
31443;SHT31;18065;55.876;9.830;2024-02-21T10:18:17;23.37;46.69
31443;SHT31;18065;55.876;9.830;2024-02-21T10:20:46;23.38;46.64
31443;SHT31;18065;55.876;9.830;2024-02-21T10:23:16;23.41;46.51
31443;SHT31;18065;55.876;9.830;2024-02-21T10:25:44;23.40;46.54
31443;SHT31;18065;55.876;9.830;2024-02-21T10:28:15;23.41;46.57
31443;SHT31;18065;55.876;9.830;2024-02-21T10:30:53;23.41;46.52
31443;SHT31;18065;55.876;9.830;2024-02-21T10:33:22;23.40;46.54
31443;SHT31;18065;55.876;9.830;2024-02-21T10:35:53;23.40;46.54
31443;SHT31;18065;55.876;9.830;2024-02-21T10:38:22;23.38;46.57
31443;SHT31;18065;55.876;9.830;2024-02-21T10:40:51;23.37;46.57
31443;SHT31;18065;55.876;9.830;2024-02-21T10:43:22;23.38;46.59
31443;SHT31;18065;55.876;9.830;2024-02-21T10:45:55;23.38;46.62
31443;SHT31;18065;55.876;9.830;2024-02-21T10:48:29;23.33;46.64
31443;SHT31;18065;55.876;9.830;2024-02-21T10:51:14;23.33;46.66
31443;SHT31;18065;55.876;9.830;2024-02-21T10:53:47;23.31;46.70
31443;SHT31;18065;55.876;9.830;2024-02-21T10:56:22;23.30;46.72
31443;SHT31;18065;55.876;9.830;2024-02-21T10:58:53;23.30;46.72
31443;SHT31;18065;55.876;9.830;2024-02-21T11:01:26;23.31;46.73
31443;SHT31;18065;55.876;9.830;2024-02-21T11:03:58;23.28;46.78
31443;SHT31;18065;55.876;9.830;2024-02-21T11:06:28;23.27;46.78
31443;SHT31;18065;55.876;9.830;2024-02-21T11:09:04;23.26;46.80
31443;SHT31;18065;55.876;9.830;2024-02-21T11:11:34;23.24;46.82
31443;SHT31;18065;55.876;9.830;2024-02-21T11:14:10;23.23;46.78
31443;SHT31;18065;55.876;9.830;2024-02-21T11:16:42;23.24;46.84
31443;SHT31;18065;55.876;9.830;2024-02-21T11:19:19;23.22;46.85
31443;SHT31;18065;55.876;9.830;2024-02-21T11:21:52;23.24;46.90
31443;SHT31;18065;55.876;9.830;2024-02-21T11:24:27;23.22;46.87
31443;SHT31;18065;55.876;9.830;2024-02-21T11:27:08;23.22;46.89
31443;SHT31;18065;55.876;9.830;2024-02-21T11:29:40;23.22;46.91
31443;SHT31;18065;55.876;9.830;2024-02-21T11:32:14;23.20;46.94
31443;SHT31;18065;55.876;9.830;2024-02-21T11:34:54;23.16;46.92
31443;SHT31;18065;55.876;9.830;2024-02-21T11:37:27;23.19;46.96
31443;SHT31;18065;55.876;9.830;2024-02-21T11:39:57;23.19;46.96
31443;SHT31;18065;55.876;9.830;2024-02-21T11:42:27;23.19;46.95
31443;SHT31;18065;55.876;9.830;2024-02-21T11:44:56;23.17;46.94
31443;SHT31;18065;55.876;9.830;2024-02-21T11:47:28;23.16;46.90
31443;SHT31;18065;55.876;9.830;2024-02-21T11:49:57;23.19;46.95
31443;SHT31;18065;55.876;9.830;2024-02-21T11:52:26;23.17;46.91
31443;SHT31;18065;55.876;9.830;2024-02-21T11:54:55;23.17;46.91
31443;SHT31;18065;55.876;9.830;2024-02-21T11:57:30;23.17;46.93
31443;SHT31;18065;55.876;9.830;2024-02-21T12:00:12;23.14;46.94
31443;SHT31;18065;55.876;9.830;2024-02-21T12:02:43;23.16;46.94
31443;SHT31;18065;55.876;9.830;2024-02-21T12:05:13;23.16;46.93
31443;SHT31;18065;55.876;9.830;2024-02-21T12:07:42;23.17;46.94
31443;SHT31;18065;55.876;9.830;2024-02-21T12:10:12;23.14;46.90
31443;SHT31;18065;55.876;9.830;2024-02-21T12:12:41;23.17;46.89
31443;SHT31;18065;55.876;9.830;2024-02-21T12:15:11;23.14;46.94
31443;SHT31;18065;55.876;9.830;2024-02-21T12:17:43;23.16;46.92
31443;SHT31;18065;55.876;9.830;2024-02-21T12:20:12;23.12;46.94
31443;SHT31;18065;55.876;9.830;2024-02-21T12:22:42;23.14;46.89
31443;SHT31;18065;55.876;9.830;2024-02-21T12:25:17;23.13;46.88
31443;SHT31;18065;55.876;9.830;2024-02-21T12:27:48;23.16;46.89
31443;SHT31;18065;55.876;9.830;2024-02-21T12:30:17;23.14;46.90
31443;SHT31;18065;55.876;9.830;2024-02-21T12:32:49;23.17;46.88
31443;SHT31;18065;55.876;9.830;2024-02-21T12:35:18;23.14;46.84
31443;SHT31;18065;55.876;9.830;2024-02-21T12:37:47;23.14;46.86
31443;SHT31;18065;55.876;9.830;2024-02-21T12:40:16;23.16;46.90
31443;SHT31;18065;55.876;9.830;2024-02-21T12:42:45;23.13;46.83
31443;SHT31;18065;55.876;9.830;2024-02-21T12:45:14;23.14;46.84
31443;SHT31;18065;55.876;9.830;2024-02-21T12:47:43;23.12;46.89
31443;SHT31;18065;55.876;9.830;2024-02-21T12:50:15;23.12;46.83
31443;SHT31;18065;55.876;9.830;2024-02-21T12:52:45;23.13;46.85
31443;SHT31;18065;55.876;9.830;2024-02-21T12:55:15;23.13;46.87
31443;SHT31;18065;55.876;9.830;2024-02-21T12:57:44;23.12;46.84
31443;SHT31;18065;55.876;9.830;2024-02-21T13:00:14;23.14;46.81
31443;SHT31;18065;55.876;9.830;2024-02-21T13:02:43;23.13;46.84
31443;SHT31;18065;55.876;9.830;2024-02-21T13:05:12;23.12;46.83
31443;SHT31;18065;55.876;9.830;2024-02-21T13:07:43;23.14;46.84
31443;SHT31;18065;55.876;9.830;2024-02-21T13:10:14;23.13;46.86
31443;SHT31;18065;55.876;9.830;2024-02-21T13:12:44;23.12;46.85
31443;SHT31;18065;55.876;9.830;2024-02-21T13:15:13;23.14;46.84
31443;SHT31;18065;55.876;9.830;2024-02-21T13:17:43;23.13;46.84
31443;SHT31;18065;55.876;9.830;2024-02-21T13:20:13;23.13;46.87
31443;SHT31;18065;55.876;9.830;2024-02-21T13:22:44;23.13;46.82
31443;SHT31;18065;55.876;9.830;2024-02-21T13:25:13;23.14;46.88
31443;SHT31;18065;55.876;9.830;2024-02-21T13:27:46;23.12;46.92
31443;SHT31;18065;55.876;9.830;2024-02-21T13:30:15;23.10;46.91
31443;SHT31;18065;55.876;9.830;2024-02-21T13:32:44;23.13;46.86
31443;SHT31;18065;55.876;9.830;2024-02-21T13:35:14;23.10;46.87
31443;SHT31;18065;55.876;9.830;2024-02-21T13:37:46;23.13;46.86
31443;SHT31;18065;55.876;9.830;2024-02-21T13:40:16;23.14;46.89
31443;SHT31;18065;55.876;9.830;2024-02-21T13:42:44;23.14;46.85
31443;SHT31;18065;55.876;9.830;2024-02-21T13:45:15;23.13;46.85
31443;SHT31;18065;55.876;9.830;2024-02-21T13:47:45;23.12;46.87
31443;SHT31;18065;55.876;9.830;2024-02-21T13:50:14;23.12;46.88
31443;SHT31;18065;55.876;9.830;2024-02-21T13:52:46;23.13;46.81
31443;SHT31;18065;55.876;9.830;2024-02-21T13:55:15;23.12;46.85
31443;SHT31;18065;55.876;9.830;2024-02-21T13:57:44;23.12;46.86
31443;SHT31;18065;55.876;9.830;2024-02-21T14:00:14;23.13;46.83
31443;SHT31;18065;55.876;9.830;2024-02-21T14:02:44;23.13;46.88
31443;SHT31;18065;55.876;9.830;2024-02-21T14:05:13;23.10;46.89
31443;SHT31;18065;55.876;9.830;2024-02-21T14:07:41;23.12;46.84
31443;SHT31;18065;55.876;9.830;2024-02-21T14:10:13;23.10;46.83
31443;SHT31;18065;55.876;9.830;2024-02-21T14:12:42;23.14;46.86
31443;SHT31;18065;55.876;9.830;2024-02-21T14:15:11;23.10;46.88
31443;SHT31;18065;55.876;9.830;2024-02-21T14:17:40;23.12;46.87
31443;SHT31;18065;55.876;9.830;2024-02-21T14:20:10;23.12;46.83
31443;SHT31;18065;55.876;9.830;2024-02-21T14:22:39;23.10;46.82
31443;SHT31;18065;55.876;9.830;2024-02-21T14:25:08;23.10;46.81
31443;SHT31;18065;55.876;9.830;2024-02-21T14:27:40;23.09;46.79
31443;SHT31;18065;55.876;9.830;2024-02-21T14:30:10;23.10;46.80
31443;SHT31;18065;55.876;9.830;2024-02-21T14:32:43;23.10;46.77
31443;SHT31;18065;55.876;9.830;2024-02-21T14:35:12;23.09;46.76
31443;SHT31;18065;55.876;9.830;2024-02-21T14:37:41;23.09;46.73
31443;SHT31;18065;55.876;9.830;2024-02-21T14:40:12;23.07;46.67
31443;SHT31;18065;55.876;9.830;2024-02-21T14:42:43;23.09;46.64
31443;SHT31;18065;55.876;9.830;2024-02-21T14:45:12;23.07;46.58
31443;SHT31;18065;55.876;9.830;2024-02-21T14:47:41;23.09;46.58
31443;SHT31;18065;55.876;9.830;2024-02-21T14:50:10;23.07;46.59
31443;SHT31;18065;55.876;9.830;2024-02-21T14:52:39;23.06;46.58
31443;SHT31;18065;55.876;9.830;2024-02-21T14:55:09;23.04;46.59
31443;SHT31;18065;55.876;9.830;2024-02-21T14:57:39;23.04;46.58
31443;SHT31;18065;55.876;9.830;2024-02-21T15:00:13;23.04;46.46
31443;SHT31;18065;55.876;9.830;2024-02-21T15:02:42;23.03;46.47
31443;SHT31;18065;55.876;9.830;2024-02-21T15:05:11;23.04;46.47
31443;SHT31;18065;55.876;9.830;2024-02-21T15:07:40;23.04;46.41
31443;SHT31;18065;55.876;9.830;2024-02-21T15:10:09;23.03;46.35
31443;SHT31;18065;55.876;9.830;2024-02-21T15:12:38;23.04;46.31
31443;SHT31;18065;55.876;9.830;2024-02-21T15:15:07;23.07;46.31
31443;SHT31;18065;55.876;9.830;2024-02-21T15:17:39;23.03;46.27
31443;SHT31;18065;55.876;9.830;2024-02-21T15:20:09;23.02;46.32
31443;SHT31;18065;55.876;9.830;2024-02-21T15:22:38;23.00;46.25
31443;SHT31;18065;55.876;9.830;2024-02-21T15:25:08;23.03;46.21
31443;SHT31;18065;55.876;9.830;2024-02-21T15:27:41;23.02;46.23
31443;SHT31;18065;55.876;9.830;2024-02-21T15:30:12;23.00;46.20
31443;SHT31;18065;55.876;9.830;2024-02-21T15:32:43;23.02;46.17
31443;SHT31;18065;55.876;9.830;2024-02-21T15:35:12;23.00;46.15
31443;SHT31;18065;55.876;9.830;2024-02-21T15:37:41;22.97;46.16
31443;SHT31;18065;55.876;9.830;2024-02-21T15:40:11;23.00;46.14
31443;SHT31;18065;55.876;9.830;2024-02-21T15:42:40;23.02;46.17
31443;SHT31;18065;55.876;9.830;2024-02-21T15:45:10;22.99;46.10
31443;SHT31;18065;55.876;9.830;2024-02-21T15:47:39;23.00;46.09